sensor_id;sensor_type;location;lat;lon;timestamp;temperature;humidity
983;DHT22;480;48.124;11.578;2022-12-29T00:00:09;5.80;99.90
983;DHT22;480;48.124;11.578;2022-12-29T00:02:36;5.80;99.90
983;DHT22;480;48.124;11.578;2022-12-29T00:05:06;5.90;99.90
983;DHT22;480;48.124;11.578;2022-12-29T00:07:33;5.80;99.90
983;DHT22;480;48.124;11.578;2022-12-29T00:10:00;5.90;99.90
983;DHT22;480;48.124;11.578;2022-12-29T00:12:27;5.90;99.90
983;DHT22;480;48.124;11.578;2022-12-29T00:15:15;5.90;99.90
983;DHT22;480;48.124;11.578;2022-12-29T00:17:59;5.90;99.90
983;DHT22;480;48.124;11.578;2022-12-29T00:20:28;5.90;99.90
983;DHT22;480;48.124;11.578;2022-12-29T00:23:12;5.90;99.90
983;DHT22;480;48.124;11.578;2022-12-29T00:25:56;5.90;99.90
983;DHT22;480;48.124;11.578;2022-12-29T00:28:43;5.90;99.90
983;DHT22;480;48.124;11.578;2022-12-29T00:31:28;5.90;99.90
983;DHT22;480;48.124;11.578;2022-12-29T00:34:12;6.00;99.90
983;DHT22;480;48.124;11.578;2022-12-29T00:36:58;6.00;99.90
983;DHT22;480;48.124;11.578;2022-12-29T00:39:25;5.90;99.90
983;DHT22;480;48.124;11.578;2022-12-29T00:42:10;5.90;99.90
983;DHT22;480;48.124;11.578;2022-12-29T00:44:54;5.80;99.90
983;DHT22;480;48.124;11.578;2022-12-29T00:47:21;5.50;99.90
983;DHT22;480;48.124;11.578;2022-12-29T00:49:48;5.50;99.90
983;DHT22;480;48.124;11.578;2022-12-29T00:52:15;5.60;99.90
983;DHT22;480;48.124;11.578;2022-12-29T00:54:42;5.60;99.90
983;DHT22;480;48.124;11.578;2022-12-29T00:57:11;5.70;99.90
983;DHT22;480;48.124;11.578;2022-12-29T00:59:40;5.70;99.90
983;DHT22;480;48.124;11.578;2022-12-29T01:02:08;5.80;99.90
983;DHT22;480;48.124;11.578;2022-12-29T01:04:36;5.80;99.90
983;DHT22;480;48.124;11.578;2022-12-29T01:07:03;5.80;99.90
983;DHT22;480;48.124;11.578;2022-12-29T01:09:32;5.70;99.90
983;DHT22;480;48.124;11.578;2022-12-29T01:12:17;5.70;99.90
983;DHT22;480;48.124;11.578;2022-12-29T01:15:05;5.80;99.90
983;DHT22;480;48.124;11.578;2022-12-29T01:17:32;5.80;99.90
983;DHT22;480;48.124;11.578;2022-12-29T01:19:59;5.80;99.90
983;DHT22;480;48.124;11.578;2022-12-29T01:22:27;5.80;99.90
983;DHT22;480;48.124;11.578;2022-12-29T01:24:55;5.70;99.90
983;DHT22;480;48.124;11.578;2022-12-29T01:27:23;5.70;99.90
983;DHT22;480;48.124;11.578;2022-12-29T01:29:50;5.60;99.90
983;DHT22;480;48.124;11.578;2022-12-29T01:32:17;5.70;99.90
983;DHT22;480;48.124;11.578;2022-12-29T01:34:44;5.60;99.90
983;DHT22;480;48.124;11.578;2022-12-29T01:37:11;5.70;99.90
983;DHT22;480;48.124;11.578;2022-12-29T01:39:38;5.60;99.90
983;DHT22;480;48.124;11.578;2022-12-29T01:42:11;5.80;99.90
983;DHT22;480;48.124;11.578;2022-12-29T01:44:50;5.80;99.90
983;DHT22;480;48.124;11.578;2022-12-29T01:47:24;5.90;99.90
983;DHT22;480;48.124;11.578;2022-12-29T01:49:54;6.00;99.90
983;DHT22;480;48.124;11.578;2022-12-29T01:52:23;5.80;99.90
983;DHT22;480;48.124;11.578;2022-12-29T01:54:52;5.80;99.90
983;DHT22;480;48.124;11.578;2022-12-29T01:57:27;5.80;99.90
983;DHT22;480;48.124;11.578;2022-12-29T01:59:57;5.80;99.90
983;DHT22;480;48.124;11.578;2022-12-29T02:02:25;5.80;99.90
983;DHT22;480;48.124;11.578;2022-12-29T02:04:53;5.70;99.90
983;DHT22;480;48.124;11.578;2022-12-29T02:07:23;5.70;99.90
983;DHT22;480;48.124;11.578;2022-12-29T02:09:53;5.70;99.90
983;DHT22;480;48.124;11.578;2022-12-29T02:12:24;5.70;99.90
983;DHT22;480;48.124;11.578;2022-12-29T02:14:55;5.70;99.90
983;DHT22;480;48.124;11.578;2022-12-29T02:17:33;5.80;99.90
983;DHT22;480;48.124;11.578;2022-12-29T02:20:27;5.70;99.90
983;DHT22;480;48.124;11.578;2022-12-29T02:23:24;5.80;99.90
983;DHT22;480;48.124;11.578;2022-12-29T02:26:14;5.80;99.90
983;DHT22;480;48.124;11.578;2022-12-29T02:29:11;5.80;99.90
983;DHT22;480;48.124;11.578;2022-12-29T02:31:46;5.80;99.90
983;DHT22;480;48.124;11.578;2022-12-29T02:34:24;5.80;99.90
983;DHT22;480;48.124;11.578;2022-12-29T02:37:05;5.80;99.90
983;DHT22;480;48.124;11.578;2022-12-29T02:39:37;5.90;99.90
983;DHT22;480;48.124;11.578;2022-12-29T02:42:12;5.90;99.90
983;DHT22;480;48.124;11.578;2022-12-29T02:44:47;5.80;99.90
983;DHT22;480;48.124;11.578;2022-12-29T02:47:23;5.80;99.90
983;DHT22;480;48.124;11.578;2022-12-29T02:49:59;5.80;99.90
983;DHT22;480;48.124;11.578;2022-12-29T02:52:30;5.90;99.90
983;DHT22;480;48.124;11.578;2022-12-29T02:54:58;5.90;99.90
983;DHT22;480;48.124;11.578;2022-12-29T02:57:30;5.80;99.90
983;DHT22;480;48.124;11.578;2022-12-29T03:00:00;5.80;99.90
983;DHT22;480;48.124;11.578;2022-12-29T03:05:28;5.90;99.90
983;DHT22;480;48.124;11.578;2022-12-29T03:08:06;5.90;99.90
983;DHT22;480;48.124;11.578;2022-12-29T03:10:44;6.00;99.90
983;DHT22;480;48.124;11.578;2022-12-29T03:13:23;6.00;99.90
983;DHT22;480;48.124;11.578;2022-12-29T03:16:14;6.10;99.90
983;DHT22;480;48.124;11.578;2022-12-29T03:18:54;6.20;99.90
983;DHT22;480;48.124;11.578;2022-12-29T03:21:29;6.20;99.90
983;DHT22;480;48.124;11.578;2022-12-29T03:24:11;6.20;99.90
983;DHT22;480;48.124;11.578;2022-12-29T03:26:40;6.30;99.90
983;DHT22;480;48.124;11.578;2022-12-29T03:29:08;6.30;99.90
983;DHT22;480;48.124;11.578;2022-12-29T03:31:37;6.40;99.90
983;DHT22;480;48.124;11.578;2022-12-29T03:34:07;6.40;99.90
983;DHT22;480;48.124;11.578;2022-12-29T03:36:42;6.50;99.90
983;DHT22;480;48.124;11.578;2022-12-29T03:39:12;6.50;99.90
983;DHT22;480;48.124;11.578;2022-12-29T03:41:43;6.60;99.90
983;DHT22;480;48.124;11.578;2022-12-29T03:44:11;6.60;99.90
983;DHT22;480;48.124;11.578;2022-12-29T03:46:39;6.60;99.90
983;DHT22;480;48.124;11.578;2022-12-29T03:49:07;6.70;99.90
983;DHT22;480;48.124;11.578;2022-12-29T03:51:34;6.80;99.90
983;DHT22;480;48.124;11.578;2022-12-29T03:54:02;6.80;99.90
983;DHT22;480;48.124;11.578;2022-12-29T03:56:29;6.90;99.90
983;DHT22;480;48.124;11.578;2022-12-29T03:58:56;6.90;99.90
983;DHT22;480;48.124;11.578;2022-12-29T04:01:23;6.90;99.90
983;DHT22;480;48.124;11.578;2022-12-29T04:03:50;6.90;99.90
983;DHT22;480;48.124;11.578;2022-12-29T04:06:18;7.00;99.90
983;DHT22;480;48.124;11.578;2022-12-29T04:08:54;7.00;99.90
983;DHT22;480;48.124;11.578;2022-12-29T04:11:22;7.00;99.90
983;DHT22;480;48.124;11.578;2022-12-29T04:13:49;7.00;99.90
983;DHT22;480;48.124;11.578;2022-12-29T04:16:16;7.00;99.90
983;DHT22;480;48.124;11.578;2022-12-29T04:18:43;7.00;99.90
983;DHT22;480;48.124;11.578;2022-12-29T04:21:10;7.10;99.90
983;DHT22;480;48.124;11.578;2022-12-29T04:23:39;7.10;99.90
983;DHT22;480;48.124;11.578;2022-12-29T04:26:06;7.10;99.90
983;DHT22;480;48.124;11.578;2022-12-29T04:28:34;7.10;99.90
983;DHT22;480;48.124;11.578;2022-12-29T04:31:02;7.20;99.90
983;DHT22;480;48.124;11.578;2022-12-29T04:33:29;7.20;99.90
983;DHT22;480;48.124;11.578;2022-12-29T04:35:56;7.20;99.90
983;DHT22;480;48.124;11.578;2022-12-29T04:38:23;7.20;99.90
983;DHT22;480;48.124;11.578;2022-12-29T04:40:52;7.20;99.90
983;DHT22;480;48.124;11.578;2022-12-29T04:43:19;7.30;99.90
983;DHT22;480;48.124;11.578;2022-12-29T04:45:47;7.30;99.90
983;DHT22;480;48.124;11.578;2022-12-29T04:48:15;7.30;99.90
983;DHT22;480;48.124;11.578;2022-12-29T04:50:42;7.40;99.90
983;DHT22;480;48.124;11.578;2022-12-29T04:53:09;7.30;99.90
983;DHT22;480;48.124;11.578;2022-12-29T04:55:36;7.40;99.90
983;DHT22;480;48.124;11.578;2022-12-29T04:58:05;7.30;99.90
983;DHT22;480;48.124;11.578;2022-12-29T05:00:32;7.30;99.90
983;DHT22;480;48.124;11.578;2022-12-29T05:02:59;7.30;99.90
983;DHT22;480;48.124;11.578;2022-12-29T05:05:26;7.40;99.90
983;DHT22;480;48.124;11.578;2022-12-29T05:07:53;7.40;99.90
983;DHT22;480;48.124;11.578;2022-12-29T05:10:20;7.50;99.90
983;DHT22;480;48.124;11.578;2022-12-29T05:12:47;7.60;99.90
983;DHT22;480;48.124;11.578;2022-12-29T05:15:15;7.50;99.90
983;DHT22;480;48.124;11.578;2022-12-29T05:17:42;7.50;99.90
983;DHT22;480;48.124;11.578;2022-12-29T05:20:10;7.50;99.90
983;DHT22;480;48.124;11.578;2022-12-29T05:22:37;7.50;99.90
983;DHT22;480;48.124;11.578;2022-12-29T05:25:04;7.40;99.90
983;DHT22;480;48.124;11.578;2022-12-29T05:27:31;7.50;99.90
983;DHT22;480;48.124;11.578;2022-12-29T05:29:58;7.50;99.90
983;DHT22;480;48.124;11.578;2022-12-29T05:32:27;7.50;99.90
983;DHT22;480;48.124;11.578;2022-12-29T05:34:54;7.50;99.90
983;DHT22;480;48.124;11.578;2022-12-29T05:37:21;7.60;99.90
983;DHT22;480;48.124;11.578;2022-12-29T05:39:48;7.50;99.90
983;DHT22;480;48.124;11.578;2022-12-29T05:42:15;7.50;99.90
983;DHT22;480;48.124;11.578;2022-12-29T05:44:42;7.60;99.90
983;DHT22;480;48.124;11.578;2022-12-29T05:47:09;7.50;99.90
983;DHT22;480;48.124;11.578;2022-12-29T05:49:37;7.50;99.90
983;DHT22;480;48.124;11.578;2022-12-29T05:52:04;7.60;99.90
983;DHT22;480;48.124;11.578;2022-12-29T05:54:31;7.60;99.90
983;DHT22;480;48.124;11.578;2022-12-29T05:56:58;7.60;99.90
983;DHT22;480;48.124;11.578;2022-12-29T05:59:25;7.60;99.90
983;DHT22;480;48.124;11.578;2022-12-29T06:01:52;7.50;99.90
983;DHT22;480;48.124;11.578;2022-12-29T06:04:19;7.50;99.90
983;DHT22;480;48.124;11.578;2022-12-29T06:06:48;7.40;99.90
983;DHT22;480;48.124;11.578;2022-12-29T06:09:15;7.40;99.90
983;DHT22;480;48.124;11.578;2022-12-29T06:11:41;7.30;99.90
983;DHT22;480;48.124;11.578;2022-12-29T06:14:09;7.30;99.90
983;DHT22;480;48.124;11.578;2022-12-29T06:16:36;7.30;99.90
983;DHT22;480;48.124;11.578;2022-12-29T06:19:03;7.40;99.90
983;DHT22;480;48.124;11.578;2022-12-29T06:21:29;7.40;99.90
983;DHT22;480;48.124;11.578;2022-12-29T06:23:58;7.40;99.90
983;DHT22;480;48.124;11.578;2022-12-29T06:26:25;7.50;99.90
983;DHT22;480;48.124;11.578;2022-12-29T06:28:52;7.40;99.90
983;DHT22;480;48.124;11.578;2022-12-29T06:31:19;7.40;99.90
983;DHT22;480;48.124;11.578;2022-12-29T06:33:46;7.50;99.90
983;DHT22;480;48.124;11.578;2022-12-29T06:36:13;7.50;99.90
983;DHT22;480;48.124;11.578;2022-12-29T06:38:40;7.60;99.90
983;DHT22;480;48.124;11.578;2022-12-29T06:41:08;7.50;99.90
983;DHT22;480;48.124;11.578;2022-12-29T06:43:35;7.30;99.90
983;DHT22;480;48.124;11.578;2022-12-29T06:46:03;7.50;99.90
983;DHT22;480;48.124;11.578;2022-12-29T06:48:30;7.50;99.90
983;DHT22;480;48.124;11.578;2022-12-29T06:50:57;7.60;99.90
983;DHT22;480;48.124;11.578;2022-12-29T06:53:24;7.60;99.90
983;DHT22;480;48.124;11.578;2022-12-29T06:55:51;7.70;99.90
983;DHT22;480;48.124;11.578;2022-12-29T06:58:20;7.70;99.90
983;DHT22;480;48.124;11.578;2022-12-29T07:00:47;7.70;99.90
983;DHT22;480;48.124;11.578;2022-12-29T07:03:14;7.60;99.90
983;DHT22;480;48.124;11.578;2022-12-29T07:05:41;7.70;99.90
983;DHT22;480;48.124;11.578;2022-12-29T07:08:08;7.60;99.90
983;DHT22;480;48.124;11.578;2022-12-29T07:10:35;7.50;99.90
983;DHT22;480;48.124;11.578;2022-12-29T07:13:02;7.40;99.90
983;DHT22;480;48.124;11.578;2022-12-29T07:15:30;7.40;99.90
983;DHT22;480;48.124;11.578;2022-12-29T07:17:57;7.50;99.90
983;DHT22;480;48.124;11.578;2022-12-29T07:20:24;7.40;99.90
983;DHT22;480;48.124;11.578;2022-12-29T07:22:51;7.40;99.90
983;DHT22;480;48.124;11.578;2022-12-29T07:25:18;7.50;99.90
983;DHT22;480;48.124;11.578;2022-12-29T07:27:45;7.40;99.90
983;DHT22;480;48.124;11.578;2022-12-29T07:30:12;7.30;99.90
983;DHT22;480;48.124;11.578;2022-12-29T07:32:41;7.40;99.90
983;DHT22;480;48.124;11.578;2022-12-29T07:35:08;7.40;99.90
983;DHT22;480;48.124;11.578;2022-12-29T07:37:35;7.30;99.90
983;DHT22;480;48.124;11.578;2022-12-29T07:40:03;7.40;99.90
983;DHT22;480;48.124;11.578;2022-12-29T07:42:31;7.40;99.90
983;DHT22;480;48.124;11.578;2022-12-29T07:44:58;7.30;99.90
983;DHT22;480;48.124;11.578;2022-12-29T07:47:25;7.40;99.90
983;DHT22;480;48.124;11.578;2022-12-29T07:49:54;7.50;99.90
983;DHT22;480;48.124;11.578;2022-12-29T07:52:21;7.50;99.90
983;DHT22;480;48.124;11.578;2022-12-29T07:54:48;7.50;99.90
983;DHT22;480;48.124;11.578;2022-12-29T07:57:15;7.50;99.90
983;DHT22;480;48.124;11.578;2022-12-29T07:59:42;7.50;99.90
983;DHT22;480;48.124;11.578;2022-12-29T08:02:10;7.60;99.90
983;DHT22;480;48.124;11.578;2022-12-29T08:04:37;7.70;99.90
983;DHT22;480;48.124;11.578;2022-12-29T08:07:05;7.60;99.90
983;DHT22;480;48.124;11.578;2022-12-29T08:09:32;7.80;99.90
983;DHT22;480;48.124;11.578;2022-12-29T08:11:59;7.80;99.90
983;DHT22;480;48.124;11.578;2022-12-29T08:14:26;7.90;99.90
983;DHT22;480;48.124;11.578;2022-12-29T08:16:53;8.00;99.90
983;DHT22;480;48.124;11.578;2022-12-29T08:19:20;7.90;99.90
983;DHT22;480;48.124;11.578;2022-12-29T08:21:47;8.10;99.90
983;DHT22;480;48.124;11.578;2022-12-29T08:24:16;8.00;99.90
983;DHT22;480;48.124;11.578;2022-12-29T08:26:43;8.10;99.90
983;DHT22;480;48.124;11.578;2022-12-29T08:29:10;8.00;99.90
983;DHT22;480;48.124;11.578;2022-12-29T08:31:37;8.10;99.90
983;DHT22;480;48.124;11.578;2022-12-29T08:34:04;8.20;99.90
983;DHT22;480;48.124;11.578;2022-12-29T08:36:31;8.20;99.90
983;DHT22;480;48.124;11.578;2022-12-29T08:38:58;8.10;99.90
983;DHT22;480;48.124;11.578;2022-12-29T08:41:26;8.10;99.90
983;DHT22;480;48.124;11.578;2022-12-29T08:43:53;8.20;99.90
983;DHT22;480;48.124;11.578;2022-12-29T08:46:20;8.30;99.90
983;DHT22;480;48.124;11.578;2022-12-29T08:48:47;8.40;99.90
983;DHT22;480;48.124;11.578;2022-12-29T08:51:14;8.50;99.90
983;DHT22;480;48.124;11.578;2022-12-29T08:53:42;8.60;99.90
983;DHT22;480;48.124;11.578;2022-12-29T08:56:10;8.70;99.90
983;DHT22;480;48.124;11.578;2022-12-29T08:58:38;8.80;99.90
983;DHT22;480;48.124;11.578;2022-12-29T09:01:06;8.80;99.90
983;DHT22;480;48.124;11.578;2022-12-29T09:03:33;8.90;99.90
983;DHT22;480;48.124;11.578;2022-12-29T09:06:00;9.00;99.90
983;DHT22;480;48.124;11.578;2022-12-29T09:08:27;9.10;99.90
983;DHT22;480;48.124;11.578;2022-12-29T09:10:54;9.10;99.90
983;DHT22;480;48.124;11.578;2022-12-29T09:13:24;9.20;99.90
983;DHT22;480;48.124;11.578;2022-12-29T09:15:59;9.20;99.90
983;DHT22;480;48.124;11.578;2022-12-29T09:18:26;9.30;99.90
983;DHT22;480;48.124;11.578;2022-12-29T09:20:56;9.20;99.90
983;DHT22;480;48.124;11.578;2022-12-29T09:23:24;9.20;99.90
983;DHT22;480;48.124;11.578;2022-12-29T09:25:51;9.30;99.90
983;DHT22;480;48.124;11.578;2022-12-29T09:28:19;9.30;99.90
983;DHT22;480;48.124;11.578;2022-12-29T09:30:46;9.40;99.90
983;DHT22;480;48.124;11.578;2022-12-29T09:33:14;9.50;99.90
983;DHT22;480;48.124;11.578;2022-12-29T09:35:42;9.40;99.90
983;DHT22;480;48.124;11.578;2022-12-29T09:38:10;9.50;99.90
983;DHT22;480;48.124;11.578;2022-12-29T09:40:38;9.60;99.90
983;DHT22;480;48.124;11.578;2022-12-29T09:43:16;9.50;99.90
983;DHT22;480;48.124;11.578;2022-12-29T09:45:47;9.50;99.90
983;DHT22;480;48.124;11.578;2022-12-29T09:48:22;9.60;99.90
983;DHT22;480;48.124;11.578;2022-12-29T09:50:55;9.60;99.90
983;DHT22;480;48.124;11.578;2022-12-29T09:53:27;9.60;99.90
983;DHT22;480;48.124;11.578;2022-12-29T09:55:58;9.70;99.90
983;DHT22;480;48.124;11.578;2022-12-29T09:58:30;9.70;99.90
983;DHT22;480;48.124;11.578;2022-12-29T10:01:02;9.70;99.90
983;DHT22;480;48.124;11.578;2022-12-29T10:03:40;9.80;99.90
983;DHT22;480;48.124;11.578;2022-12-29T10:06:13;9.80;99.90
983;DHT22;480;48.124;11.578;2022-12-29T10:08:47;9.80;99.90
983;DHT22;480;48.124;11.578;2022-12-29T10:11:24;9.80;99.90
983;DHT22;480;48.124;11.578;2022-12-29T10:14:07;9.90;99.90
983;DHT22;480;48.124;11.578;2022-12-29T10:16:42;9.90;99.90
983;DHT22;480;48.124;11.578;2022-12-29T10:19:30;10.10;99.90
983;DHT22;480;48.124;11.578;2022-12-29T10:22:07;10.10;99.90
983;DHT22;480;48.124;11.578;2022-12-29T10:24:38;10.10;99.90
983;DHT22;480;48.124;11.578;2022-12-29T10:27:10;10.10;99.90
983;DHT22;480;48.124;11.578;2022-12-29T10:29:41;10.20;99.90
983;DHT22;480;48.124;11.578;2022-12-29T10:32:20;10.30;99.90
983;DHT22;480;48.124;11.578;2022-12-29T10:34:53;10.30;99.90
983;DHT22;480;48.124;11.578;2022-12-29T10:37:32;10.20;99.90
983;DHT22;480;48.124;11.578;2022-12-29T10:40:11;10.20;99.90
983;DHT22;480;48.124;11.578;2022-12-29T10:42:42;10.30;99.90
983;DHT22;480;48.124;11.578;2022-12-29T10:45:14;10.40;99.90
983;DHT22;480;48.124;11.578;2022-12-29T10:47:50;10.30;99.90
983;DHT22;480;48.124;11.578;2022-12-29T10:50:20;10.30;99.90
983;DHT22;480;48.124;11.578;2022-12-29T10:52:48;10.30;99.90
983;DHT22;480;48.124;11.578;2022-12-29T10:55:19;10.30;99.90
983;DHT22;480;48.124;11.578;2022-12-29T10:57:48;10.20;99.90
983;DHT22;480;48.124;11.578;2022-12-29T11:00:17;10.30;99.90
983;DHT22;480;48.124;11.578;2022-12-29T11:03:10;10.30;99.90
983;DHT22;480;48.124;11.578;2022-12-29T11:05:49;10.40;99.90
983;DHT22;480;48.124;11.578;2022-12-29T11:08:21;10.50;99.90
983;DHT22;480;48.124;11.578;2022-12-29T11:10:59;10.60;99.90
983;DHT22;480;48.124;11.578;2022-12-29T11:13:28;10.70;99.90
983;DHT22;480;48.124;11.578;2022-12-29T11:15:56;10.80;99.90
983;DHT22;480;48.124;11.578;2022-12-29T11:18:24;10.90;99.90
983;DHT22;480;48.124;11.578;2022-12-29T11:20:54;11.00;99.90
983;DHT22;480;48.124;11.578;2022-12-29T11:23:32;11.10;99.90
983;DHT22;480;48.124;11.578;2022-12-29T11:26:16;11.30;99.90
983;DHT22;480;48.124;11.578;2022-12-29T11:28:46;11.50;99.90
983;DHT22;480;48.124;11.578;2022-12-29T11:31:21;11.60;99.90
983;DHT22;480;48.124;11.578;2022-12-29T11:33:48;11.70;99.90
983;DHT22;480;48.124;11.578;2022-12-29T11:36:21;11.80;99.90
983;DHT22;480;48.124;11.578;2022-12-29T11:38:52;11.90;99.90
983;DHT22;480;48.124;11.578;2022-12-29T11:41:30;12.00;99.90
983;DHT22;480;48.124;11.578;2022-12-29T11:43:59;12.00;99.90
983;DHT22;480;48.124;11.578;2022-12-29T11:46:30;12.00;99.90
983;DHT22;480;48.124;11.578;2022-12-29T11:48:59;12.10;99.90
983;DHT22;480;48.124;11.578;2022-12-29T11:51:32;12.10;99.90
983;DHT22;480;48.124;11.578;2022-12-29T11:54:02;12.20;99.90
983;DHT22;480;48.124;11.578;2022-12-29T11:56:35;12.20;99.90
983;DHT22;480;48.124;11.578;2022-12-29T11:59:37;12.20;99.90
983;DHT22;480;48.124;11.578;2022-12-29T12:02:35;12.10;99.90
983;DHT22;480;48.124;11.578;2022-12-29T12:05:12;12.30;99.90
983;DHT22;480;48.124;11.578;2022-12-29T12:07:44;12.30;99.90
983;DHT22;480;48.124;11.578;2022-12-29T12:10:20;12.10;99.90
983;DHT22;480;48.124;11.578;2022-12-29T12:12:52;12.20;99.90
983;DHT22;480;48.124;11.578;2022-12-29T12:15:23;12.20;99.90
983;DHT22;480;48.124;11.578;2022-12-29T12:17:54;12.20;99.90
983;DHT22;480;48.124;11.578;2022-12-29T12:20:26;12.20;99.90
983;DHT22;480;48.124;11.578;2022-12-29T12:23:02;12.30;99.90
983;DHT22;480;48.124;11.578;2022-12-29T12:25:38;12.30;99.90
983;DHT22;480;48.124;11.578;2022-12-29T12:28:11;12.30;99.90
983;DHT22;480;48.124;11.578;2022-12-29T12:30:46;12.40;99.90
983;DHT22;480;48.124;11.578;2022-12-29T12:33:22;12.50;99.90
983;DHT22;480;48.124;11.578;2022-12-29T12:36:03;12.50;99.90
983;DHT22;480;48.124;11.578;2022-12-29T12:38:40;12.50;99.90
983;DHT22;480;48.124;11.578;2022-12-29T12:41:13;12.50;99.90
983;DHT22;480;48.124;11.578;2022-12-29T12:43:46;12.60;99.90
983;DHT22;480;48.124;11.578;2022-12-29T12:46:42;12.60;99.90
983;DHT22;480;48.124;11.578;2022-12-29T12:49:41;12.70;99.90
983;DHT22;480;48.124;11.578;2022-12-29T12:52:19;12.80;99.90
983;DHT22;480;48.124;11.578;2022-12-29T12:55:22;12.90;99.90
983;DHT22;480;48.124;11.578;2022-12-29T12:58:03;13.10;99.90
983;DHT22;480;48.124;11.578;2022-12-29T13:00:42;13.00;99.90
983;DHT22;480;48.124;11.578;2022-12-29T13:03:16;13.00;99.90
983;DHT22;480;48.124;11.578;2022-12-29T13:06:02;13.10;99.90
983;DHT22;480;48.124;11.578;2022-12-29T13:09:10;13.20;99.90
983;DHT22;480;48.124;11.578;2022-12-29T13:11:55;13.30;99.90
983;DHT22;480;48.124;11.578;2022-12-29T13:14:38;13.30;99.90
983;DHT22;480;48.124;11.578;2022-12-29T13:17:11;13.20;99.90
983;DHT22;480;48.124;11.578;2022-12-29T13:19:46;13.20;99.90
983;DHT22;480;48.124;11.578;2022-12-29T13:22:20;13.30;99.90
983;DHT22;480;48.124;11.578;2022-12-29T13:24:56;13.20;99.90
983;DHT22;480;48.124;11.578;2022-12-29T13:27:35;13.10;99.90
983;DHT22;480;48.124;11.578;2022-12-29T13:30:08;13.10;99.90
983;DHT22;480;48.124;11.578;2022-12-29T13:32:47;13.20;99.90
983;DHT22;480;48.124;11.578;2022-12-29T13:38:13;13.20;99.90
983;DHT22;480;48.124;11.578;2022-12-29T13:40:46;13.20;99.90
983;DHT22;480;48.124;11.578;2022-12-29T13:43:16;13.10;99.90
983;DHT22;480;48.124;11.578;2022-12-29T13:45:44;13.10;99.90
983;DHT22;480;48.124;11.578;2022-12-29T13:48:16;13.20;99.90
983;DHT22;480;48.124;11.578;2022-12-29T13:50:48;13.10;99.90
983;DHT22;480;48.124;11.578;2022-12-29T13:53:24;13.20;99.90
983;DHT22;480;48.124;11.578;2022-12-29T13:55:56;12.90;99.90
983;DHT22;480;48.124;11.578;2022-12-29T13:58:32;12.90;99.90
983;DHT22;480;48.124;11.578;2022-12-29T14:01:08;12.90;99.90
983;DHT22;480;48.124;11.578;2022-12-29T14:03:50;12.90;99.90
983;DHT22;480;48.124;11.578;2022-12-29T14:06:23;12.70;99.90
983;DHT22;480;48.124;11.578;2022-12-29T14:08:53;12.80;99.90
983;DHT22;480;48.124;11.578;2022-12-29T14:11:22;12.90;99.90
983;DHT22;480;48.124;11.578;2022-12-29T14:13:53;12.80;99.90
983;DHT22;480;48.124;11.578;2022-12-29T14:16:27;12.70;99.90
983;DHT22;480;48.124;11.578;2022-12-29T14:18:56;12.70;99.90
983;DHT22;480;48.124;11.578;2022-12-29T14:21:25;12.70;99.90
983;DHT22;480;48.124;11.578;2022-12-29T14:26:43;12.60;99.90
983;DHT22;480;48.124;11.578;2022-12-29T14:29:43;12.70;99.90
983;DHT22;480;48.124;11.578;2022-12-29T14:32:35;12.60;99.90
983;DHT22;480;48.124;11.578;2022-12-29T14:35:38;12.30;99.90
983;DHT22;480;48.124;11.578;2022-12-29T14:38:20;12.30;99.90
983;DHT22;480;48.124;11.578;2022-12-29T14:40:48;12.30;99.90
983;DHT22;480;48.124;11.578;2022-12-29T14:43:23;12.10;99.90
983;DHT22;480;48.124;11.578;2022-12-29T14:45:58;12.20;99.90
983;DHT22;480;48.124;11.578;2022-12-29T14:48:38;12.20;99.90
983;DHT22;480;48.124;11.578;2022-12-29T14:51:25;12.10;99.90
983;DHT22;480;48.124;11.578;2022-12-29T14:53:55;12.00;99.90
983;DHT22;480;48.124;11.578;2022-12-29T14:56:26;11.90;99.90
983;DHT22;480;48.124;11.578;2022-12-29T14:58:55;11.90;99.90
983;DHT22;480;48.124;11.578;2022-12-29T15:01:32;11.70;99.90
983;DHT22;480;48.124;11.578;2022-12-29T15:04:06;11.70;99.90
983;DHT22;480;48.124;11.578;2022-12-29T15:06:40;11.60;99.90
983;DHT22;480;48.124;11.578;2022-12-29T15:09:17;11.70;99.90
983;DHT22;480;48.124;11.578;2022-12-29T15:11:52;11.60;99.90
983;DHT22;480;48.124;11.578;2022-12-29T15:14:34;11.50;99.90
983;DHT22;480;48.124;11.578;2022-12-29T15:17:10;11.60;99.90
983;DHT22;480;48.124;11.578;2022-12-29T15:19:38;11.50;99.90
983;DHT22;480;48.124;11.578;2022-12-29T15:22:05;11.50;99.90
983;DHT22;480;48.124;11.578;2022-12-29T15:24:33;11.30;99.90
983;DHT22;480;48.124;11.578;2022-12-29T15:27:03;11.40;99.90
983;DHT22;480;48.124;11.578;2022-12-29T15:29:35;11.30;99.90
983;DHT22;480;48.124;11.578;2022-12-29T15:32:17;11.40;99.90
983;DHT22;480;48.124;11.578;2022-12-29T15:34:46;11.30;99.90
983;DHT22;480;48.124;11.578;2022-12-29T15:37:19;11.30;99.90
983;DHT22;480;48.124;11.578;2022-12-29T15:39:46;11.30;99.90
983;DHT22;480;48.124;11.578;2022-12-29T15:42:33;11.30;99.90
983;DHT22;480;48.124;11.578;2022-12-29T15:45:04;11.30;99.90
983;DHT22;480;48.124;11.578;2022-12-29T15:47:34;11.20;99.90
983;DHT22;480;48.124;11.578;2022-12-29T15:50:05;11.20;99.90
983;DHT22;480;48.124;11.578;2022-12-29T15:52:33;11.00;99.90
983;DHT22;480;48.124;11.578;2022-12-29T15:55:01;11.10;99.90
983;DHT22;480;48.124;11.578;2022-12-29T15:57:31;11.00;99.90
983;DHT22;480;48.124;11.578;2022-12-29T16:00:03;11.00;99.90
983;DHT22;480;48.124;11.578;2022-12-29T16:02:33;11.00;99.90
983;DHT22;480;48.124;11.578;2022-12-29T16:05:00;11.00;99.90
983;DHT22;480;48.124;11.578;2022-12-29T16:07:29;11.00;99.90
983;DHT22;480;48.124;11.578;2022-12-29T16:09:58;10.80;99.90
983;DHT22;480;48.124;11.578;2022-12-29T16:12:31;10.80;99.90
983;DHT22;480;48.124;11.578;2022-12-29T16:15:00;10.90;99.90
983;DHT22;480;48.124;11.578;2022-12-29T16:17:29;10.90;99.90
983;DHT22;480;48.124;11.578;2022-12-29T16:19:59;10.90;99.90
983;DHT22;480;48.124;11.578;2022-12-29T16:22:29;10.80;99.90
983;DHT22;480;48.124;11.578;2022-12-29T16:25:00;10.90;99.90
983;DHT22;480;48.124;11.578;2022-12-29T16:27:32;10.90;99.90
983;DHT22;480;48.124;11.578;2022-12-29T16:30:07;10.90;99.90
983;DHT22;480;48.124;11.578;2022-12-29T16:32:46;10.90;99.90
983;DHT22;480;48.124;11.578;2022-12-29T16:35:17;10.80;99.90
983;DHT22;480;48.124;11.578;2022-12-29T16:37:45;10.90;99.90
983;DHT22;480;48.124;11.578;2022-12-29T16:40:29;10.80;99.90
983;DHT22;480;48.124;11.578;2022-12-29T16:42:58;10.80;99.90
983;DHT22;480;48.124;11.578;2022-12-29T16:48:34;10.90;99.90
983;DHT22;480;48.124;11.578;2022-12-29T16:51:05;10.80;99.90
983;DHT22;480;48.124;11.578;2022-12-29T16:53:35;10.90;99.90
983;DHT22;480;48.124;11.578;2022-12-29T16:56:08;10.90;99.90
983;DHT22;480;48.124;11.578;2022-12-29T16:58:36;11.00;99.90
983;DHT22;480;48.124;11.578;2022-12-29T17:01:05;11.00;99.90
983;DHT22;480;48.124;11.578;2022-12-29T17:03:47;11.00;99.90
983;DHT22;480;48.124;11.578;2022-12-29T17:06:19;11.00;99.90
983;DHT22;480;48.124;11.578;2022-12-29T17:08:47;10.90;99.90